createdAt,value
2023-09-13T00:01:44.395Z,1.15
2023-09-13T00:04:13.944Z,0.93
2023-09-13T00:06:41.911Z,1.08
2023-09-13T00:09:10.169Z,0.80
2023-09-13T00:11:38.240Z,1.05
2023-09-13T00:14:06.894Z,0.82
2023-09-13T00:16:35.221Z,0.90
2023-09-13T00:19:05.417Z,1.10
2023-09-13T00:21:34.784Z,1.35
2023-09-13T00:24:02.840Z,1.15
2023-09-13T00:26:30.659Z,1.20
2023-09-13T00:28:59.112Z,1.33
2023-09-13T00:31:27.000Z,1.20
2023-09-13T00:33:54.994Z,1.25
2023-09-13T00:36:22.790Z,0.65
2023-09-13T00:38:51.896Z,1.23
2023-09-13T00:41:19.760Z,1.00
2023-09-13T00:43:47.781Z,1.25
2023-09-13T00:46:16.845Z,1.33
2023-09-13T00:48:45.305Z,1.02
2023-09-13T00:51:13.503Z,0.70
2023-09-13T00:53:42.405Z,1.15
2023-09-13T00:56:12.952Z,1.20
2023-09-13T00:58:41.099Z,1.45
2023-09-13T01:01:11.020Z,1.48
2023-09-13T01:03:39.551Z,1.27
2023-09-13T01:06:10.397Z,1.40
2023-09-13T01:08:40.800Z,1.30
2023-09-13T01:11:08.977Z,1.13
2023-09-13T01:13:38.319Z,1.27
2023-09-13T01:16:16.840Z,1.15
2023-09-13T01:18:57.470Z,0.88
2023-09-13T01:21:47.986Z,0.82
2023-09-13T01:24:56.101Z,1.00
2023-09-13T01:27:40.684Z,1.15
2023-09-13T01:32:38.710Z,1.00
2023-09-13T01:35:07.265Z,1.00
2023-09-13T01:37:35.328Z,1.25
2023-09-13T01:40:07.120Z,1.00
2023-09-13T01:42:37.871Z,1.13
2023-09-13T01:45:11.916Z,1.48
2023-09-13T01:47:44.431Z,1.10
2023-09-13T01:50:14.671Z,0.82
2023-09-13T01:52:42.692Z,1.08
2023-09-13T01:55:12.303Z,0.60
2023-09-13T01:57:40.692Z,1.00
2023-09-13T02:00:12.141Z,0.95
2023-09-13T02:02:40.007Z,0.73
2023-09-13T02:05:09.233Z,0.80
2023-09-13T02:07:37.141Z,0.70
2023-09-13T02:10:05.922Z,0.93
2023-09-13T02:12:33.826Z,1.17
2023-09-13T02:15:01.627Z,1.10
2023-09-13T02:17:32.459Z,1.70
2023-09-13T02:20:00.573Z,1.02
2023-09-13T02:22:28.442Z,0.85
2023-09-13T02:24:56.292Z,0.85
2023-09-13T02:27:24.269Z,1.33
2023-09-13T02:29:52.072Z,1.10
2023-09-13T02:32:19.884Z,0.85
2023-09-13T02:34:49.210Z,1.05
2023-09-13T02:37:17.108Z,0.98
2023-09-13T02:39:46.284Z,1.30
2023-09-13T02:42:14.097Z,1.08
2023-09-13T02:44:41.939Z,0.77
2023-09-13T02:47:09.752Z,1.42
2023-09-13T02:49:37.658Z,1.60
2023-09-13T02:52:08.162Z,1.17
2023-09-13T02:54:36.201Z,0.80
2023-09-13T02:57:04.095Z,1.30
2023-09-13T02:59:31.949Z,1.10
2023-09-13T03:01:59.908Z,1.42
2023-09-13T03:04:28.387Z,0.90
2023-09-13T03:06:56.260Z,0.63
2023-09-13T03:09:25.765Z,0.98
2023-09-13T03:11:53.659Z,0.75
2023-09-13T03:14:21.478Z,0.65
2023-09-13T03:16:49.375Z,1.25
2023-09-13T03:19:17.267Z,1.20
2023-09-13T03:21:46.784Z,0.98
2023-09-13T03:24:14.608Z,1.67
2023-09-13T03:26:43.785Z,0.70
2023-09-13T03:29:11.640Z,1.10
2023-09-13T03:31:39.938Z,1.02
2023-09-13T03:34:07.970Z,1.25
2023-09-13T03:36:36.037Z,1.05
2023-09-13T03:39:04.999Z,0.90
2023-09-13T03:41:33.897Z,0.95
2023-09-13T03:44:04.367Z,1.02
2023-09-13T03:46:32.251Z,0.98
2023-09-13T03:49:00.248Z,0.93
2023-09-13T03:51:28.215Z,0.95
2023-09-13T03:53:56.206Z,1.42
2023-09-13T03:56:24.082Z,1.40
2023-09-13T03:58:52.089Z,1.00
2023-09-13T04:01:21.610Z,0.60
2023-09-13T04:03:50.380Z,0.77
2023-09-13T04:06:18.836Z,1.20
2023-09-13T04:08:46.731Z,0.60
2023-09-13T04:11:14.580Z,0.90
2023-09-13T04:13:42.599Z,1.13
2023-09-13T04:16:16.435Z,1.20
2023-09-13T04:18:45.821Z,1.27
2023-09-13T04:21:13.787Z,0.73
2023-09-13T04:23:41.852Z,1.08
2023-09-13T04:26:09.792Z,1.23
2023-09-13T04:28:37.620Z,1.20
2023-09-13T04:31:05.434Z,1.17
2023-09-13T04:33:52.297Z,1.17
2023-09-13T04:36:20.594Z,1.15
2023-09-13T04:38:49.616Z,0.80
2023-09-13T04:41:18.882Z,1.15
2023-09-13T04:43:47.316Z,1.10
2023-09-13T04:46:15.897Z,1.38
2023-09-13T04:48:43.852Z,0.80
2023-09-13T04:51:13.621Z,1.17
2023-09-13T04:53:41.455Z,0.90
2023-09-13T04:56:09.937Z,1.38
2023-09-13T04:58:39.149Z,0.85
2023-09-13T05:01:07.305Z,1.05
2023-09-13T05:03:35.368Z,1.02
2023-09-13T05:06:05.498Z,1.23
2023-09-13T05:08:36.135Z,1.15
2023-09-13T05:11:04.306Z,0.95
2023-09-13T05:13:32.734Z,1.70
2023-09-13T05:16:00.814Z,0.90
2023-09-13T05:18:28.693Z,1.50
2023-09-13T05:20:56.553Z,1.30
2023-09-13T05:23:25.044Z,1.33
2023-09-13T05:25:56.717Z,1.25
2023-09-13T05:28:25.756Z,1.63
2023-09-13T05:30:53.787Z,0.88
2023-09-13T05:33:21.670Z,1.50
2023-09-13T05:35:49.482Z,1.48
2023-09-13T05:38:17.310Z,1.30
2023-09-13T05:40:45.220Z,1.73
2023-09-13T05:43:15.184Z,1.45
2023-09-13T05:45:43.069Z,1.55
2023-09-13T05:48:10.949Z,1.60
2023-09-13T05:50:38.799Z,1.38
2023-09-13T05:53:06.599Z,1.77
2023-09-13T05:55:34.575Z,1.63
2023-09-13T05:58:02.472Z,1.90
2023-09-13T06:00:31.658Z,1.65
2023-09-13T06:02:59.470Z,1.80
2023-09-13T06:05:27.304Z,1.70
2023-09-13T06:07:55.137Z,2.10
2023-09-13T06:10:22.991Z,1.77
2023-09-13T06:12:50.896Z,1.58
2023-09-13T06:15:19.160Z,1.88
2023-09-13T06:17:48.586Z,1.73
2023-09-13T06:20:16.699Z,1.75
2023-09-13T06:22:44.529Z,2.03
2023-09-13T06:25:12.383Z,1.77
2023-09-13T06:27:40.695Z,1.60
2023-09-13T06:30:10.438Z,1.70
2023-09-13T06:32:41.645Z,2.15
2023-09-13T06:35:16.027Z,1.92
2023-09-13T06:37:46.779Z,2.10
2023-09-13T06:40:16.526Z,1.80
2023-09-13T06:42:59.249Z,1.55
2023-09-13T06:45:28.324Z,1.85
2023-09-13T06:47:58.541Z,1.55
2023-09-13T06:50:52.718Z,1.42
2023-09-13T06:53:44.800Z,2.15
2023-09-13T06:56:07.788Z,1.85
2023-09-13T06:58:38.641Z,1.65
2023-09-13T07:03:40.405Z,1.58
2023-09-13T07:06:10.292Z,1.90
2023-09-13T07:08:38.107Z,1.35
2023-09-13T07:11:07.057Z,1.63
2023-09-13T07:13:35.129Z,1.55
2023-09-13T07:16:03.313Z,1.13
2023-09-13T07:18:31.087Z,1.60
2023-09-13T07:20:58.917Z,1.55
2023-09-13T07:23:28.339Z,1.73
2023-09-13T07:25:56.407Z,1.52
2023-09-13T07:28:24.581Z,1.67
2023-09-13T07:30:52.650Z,1.88
2023-09-13T07:33:20.487Z,1.95
2023-09-13T07:35:48.275Z,1.75
2023-09-13T07:38:16.213Z,1.83
2023-09-13T07:40:47.610Z,2.47
2023-09-13T07:43:15.417Z,1.83
2023-09-13T07:45:43.282Z,2.28
2023-09-13T07:48:11.141Z,2.40
2023-09-13T07:50:41.901Z,2.08
2023-09-13T07:53:11.540Z,1.95
2023-09-13T07:55:40.828Z,2.50
2023-09-13T07:58:10.776Z,2.03
2023-09-13T08:00:38.762Z,2.17
2023-09-13T08:03:08.006Z,2.65
2023-09-13T08:05:35.815Z,2.10
2023-09-13T08:08:04.437Z,1.95
2023-09-13T08:10:32.732Z,2.20
2023-09-13T08:13:00.657Z,1.92
2023-09-13T08:15:43.243Z,1.70
2023-09-13T08:18:16.960Z,1.88
2023-09-13T08:20:45.043Z,3.10
2023-09-13T08:23:12.935Z,2.42
2023-09-13T08:25:41.380Z,1.77
2023-09-13T08:28:10.039Z,2.35
2023-09-13T08:30:39.809Z,1.98
2023-09-13T08:33:08.180Z,2.50
2023-09-13T08:35:36.359Z,2.42
2023-09-13T08:38:04.565Z,2.17
2023-09-13T08:40:32.716Z,2.00
2023-09-13T08:43:01.944Z,1.85
2023-09-13T08:45:33.220Z,2.30
2023-09-13T08:48:04.531Z,2.25
2023-09-13T08:50:35.496Z,2.00
2023-09-13T08:53:05.324Z,2.08
2023-09-13T08:55:34.627Z,2.15
2023-09-13T08:58:04.050Z,1.80
2023-09-13T09:00:38.212Z,2.08
2023-09-13T09:03:09.967Z,2.42
2023-09-13T09:05:39.107Z,2.70
2023-09-13T09:08:08.797Z,2.08
2023-09-13T09:10:38.120Z,1.77
2023-09-13T09:13:11.198Z,1.95
2023-09-13T09:15:42.002Z,2.25
2023-09-13T09:18:12.686Z,1.70
2023-09-13T09:20:42.738Z,2.08
2023-09-13T09:23:11.992Z,1.77
2023-09-13T09:25:44.971Z,2.22
2023-09-13T09:28:12.992Z,2.30
2023-09-13T09:30:41.260Z,1.45
2023-09-13T09:33:12.116Z,2.30
2023-09-13T09:35:39.956Z,2.03
2023-09-13T09:38:23.103Z,2.03
2023-09-13T09:40:51.795Z,1.50
2023-09-13T09:43:19.631Z,1.98
2023-09-13T09:45:48.076Z,2.25
2023-09-13T09:48:17.612Z,2.08
2023-09-13T09:50:48.075Z,2.05
2023-09-13T09:53:16.353Z,2.70
2023-09-13T09:55:44.330Z,2.20
2023-09-13T09:58:12.490Z,2.08
2023-09-13T10:00:53.191Z,2.38
2023-09-13T10:03:24.720Z,2.28
2023-09-13T10:06:04.149Z,1.80
2023-09-13T10:08:47.331Z,2.28
2023-09-13T10:13:47.615Z,2.00
2023-09-13T10:16:17.835Z,2.60
2023-09-13T10:18:50.383Z,2.47
2023-09-13T10:21:26.465Z,1.80
2023-09-13T10:24:02.154Z,2.50
2023-09-13T10:26:33.262Z,2.13
2023-09-13T10:29:12.638Z,1.83
2023-09-13T10:31:48.510Z,2.10
2023-09-13T10:34:25.011Z,1.95
2023-09-13T10:37:02.230Z,2.88
2023-09-13T10:39:39.140Z,2.17
2023-09-13T10:42:09.770Z,1.65
2023-09-13T10:44:39.449Z,2.00
2023-09-13T10:47:09.434Z,1.75
2023-09-13T10:49:43.394Z,2.00
2023-09-13T10:52:12.684Z,1.88
2023-09-13T10:54:43.722Z,1.27
2023-09-13T10:57:13.661Z,2.30
2023-09-13T10:59:42.492Z,2.10
2023-09-13T11:02:10.290Z,2.10
2023-09-13T11:04:40.562Z,2.42
2023-09-13T11:07:08.744Z,2.03
2023-09-13T11:09:36.624Z,2.15
2023-09-13T11:12:05.175Z,1.92
2023-09-13T11:14:34.892Z,2.20
2023-09-13T11:17:13.120Z,1.92
2023-09-13T11:19:42.318Z,2.28
2023-09-13T11:22:10.118Z,2.20
2023-09-13T11:24:58.003Z,2.20
2023-09-13T11:27:28.971Z,2.40
2023-09-13T11:30:00.850Z,2.20
2023-09-13T11:32:32.503Z,2.38
2023-09-13T11:35:05.259Z,2.15
2023-09-13T11:37:34.607Z,2.03
2023-09-13T11:40:12.960Z,1.92
2023-09-13T11:42:56.310Z,2.20
2023-09-13T11:45:34.820Z,2.30
2023-09-13T11:48:06.630Z,2.28
2023-09-13T11:50:48.921Z,2.45
2023-09-13T11:53:22.250Z,2.42
2023-09-13T11:56:09.821Z,1.80
2023-09-13T11:58:55.038Z,1.92
2023-09-13T12:01:27.355Z,2.22
2023-09-13T12:06:36.706Z,2.13
2023-09-13T12:09:14.885Z,2.17
2023-09-13T12:11:48.139Z,2.22
2023-09-13T12:14:22.702Z,2.13
2023-09-13T12:16:58.487Z,2.13
2023-09-13T12:19:26.893Z,2.05
2023-09-13T12:21:56.000Z,2.78
2023-09-13T12:24:27.037Z,2.03
2023-09-13T12:26:55.621Z,2.30
2023-09-13T12:29:23.647Z,2.17
2023-09-13T12:31:56.602Z,2.40
2023-09-13T12:34:25.627Z,2.05
2023-09-13T12:36:53.538Z,2.25
2023-09-13T12:39:22.669Z,1.88
2023-09-13T12:41:50.516Z,2.55
2023-09-13T12:44:20.894Z,2.28
2023-09-13T12:46:52.871Z,2.72
2023-09-13T12:49:21.038Z,2.00
2023-09-13T12:51:52.576Z,1.90
2023-09-13T12:54:21.833Z,2.05
2023-09-13T12:56:49.639Z,1.77
2023-09-13T12:59:17.502Z,2.03
2023-09-13T13:01:45.489Z,2.40
2023-09-13T13:04:14.609Z,2.08
2023-09-13T13:07:00.991Z,2.20
2023-09-13T13:09:30.822Z,2.22
2023-09-13T13:11:58.912Z,2.08
2023-09-13T13:14:28.308Z,2.42
2023-09-13T13:16:59.029Z,2.25
2023-09-13T13:19:44.556Z,2.30
2023-09-13T13:22:20.561Z,2.13
2023-09-13T13:24:49.996Z,2.53
2023-09-13T13:27:19.758Z,1.95
2023-09-13T13:29:48.816Z,2.10
2023-09-13T13:32:16.605Z,2.33
2023-09-13T13:34:44.792Z,2.30
2023-09-13T13:37:12.883Z,2.55
2023-09-13T13:39:41.914Z,2.25
2023-09-13T13:42:11.234Z,2.40
2023-09-13T13:44:39.040Z,2.90
2023-09-13T13:47:07.293Z,2.30
2023-09-13T13:49:35.118Z,2.38
2023-09-13T13:52:02.933Z,2.28
2023-09-13T13:54:30.938Z,2.85
2023-09-13T13:57:00.809Z,3.10
2023-09-13T13:59:29.962Z,3.15
2023-09-13T14:01:57.851Z,2.88
2023-09-13T14:04:25.664Z,2.90
2023-09-13T14:06:53.421Z,2.70
2023-09-13T14:09:21.306Z,2.33
2023-09-13T14:11:49.173Z,2.67
2023-09-13T14:14:19.406Z,2.65
2023-09-13T14:16:49.768Z,2.45
2023-09-13T14:19:18.640Z,2.80
2023-09-13T14:21:47.008Z,2.67
2023-09-13T14:24:14.922Z,2.65
2023-09-13T14:26:42.848Z,2.67
2023-09-13T14:29:12.839Z,2.90
2023-09-13T14:31:40.764Z,2.75
2023-09-13T14:34:09.938Z,2.55
2023-09-13T14:36:37.878Z,1.67
2023-09-13T14:39:05.926Z,2.60
2023-09-13T14:41:33.666Z,2.22
2023-09-13T14:44:01.388Z,2.38
2023-09-13T14:46:29.334Z,2.30
2023-09-13T14:48:57.301Z,2.20
2023-09-13T14:51:26.619Z,2.40
2023-09-13T14:53:54.418Z,2.10
2023-09-13T14:56:22.200Z,2.67
2023-09-13T14:58:50.033Z,2.80
2023-09-13T15:01:17.866Z,2.33
2023-09-13T15:03:45.753Z,2.08
2023-09-13T15:06:16.742Z,2.33
2023-09-13T15:08:46.173Z,2.17
2023-09-13T15:11:14.160Z,2.45
2023-09-13T15:13:43.505Z,1.63
2023-09-13T15:16:13.326Z,2.50
2023-09-13T15:18:41.222Z,2.47
2023-09-13T15:21:09.034Z,2.60
2023-09-13T15:23:36.953Z,2.47
2023-09-13T15:26:06.209Z,2.53
2023-09-13T15:28:34.071Z,2.50
2023-09-13T15:31:01.952Z,2.35
2023-09-13T15:33:30.090Z,1.92
2023-09-13T15:35:57.884Z,2.08
2023-09-13T15:38:26.037Z,2.70
2023-09-13T15:40:53.769Z,2.05
2023-09-13T15:43:22.891Z,2.22
2023-09-13T15:45:51.207Z,2.40
2023-09-13T15:48:20.398Z,2.25
2023-09-13T15:50:49.508Z,2.08
2023-09-13T15:53:17.347Z,1.70
2023-09-13T15:55:45.129Z,2.28
2023-09-13T15:58:12.831Z,2.42
2023-09-13T16:00:42.594Z,2.55
2023-09-13T16:03:10.782Z,1.92
2023-09-13T16:05:38.722Z,2.58
2023-09-13T16:08:06.518Z,2.30
2023-09-13T16:10:34.328Z,2.10
2023-09-13T16:13:02.020Z,2.70
2023-09-13T16:15:29.729Z,2.42
2023-09-13T16:17:58.858Z,2.25
2023-09-13T16:20:26.687Z,2.00
2023-09-13T16:22:56.664Z,1.90
2023-09-13T16:25:24.647Z,2.08
2023-09-13T16:27:52.450Z,2.15
2023-09-13T16:30:20.235Z,1.55
2023-09-13T16:32:49.565Z,1.73
2023-09-13T16:35:19.234Z,1.35
2023-09-13T16:37:47.305Z,1.92
2023-09-13T16:40:15.248Z,1.38
2023-09-13T16:42:44.609Z,1.67
2023-09-13T16:45:14.329Z,1.83
2023-09-13T16:47:42.135Z,2.00
2023-09-13T16:50:13.207Z,1.17
2023-09-13T16:52:42.629Z,1.38
2023-09-13T16:55:11.007Z,1.55
2023-09-13T16:57:38.970Z,1.65
2023-09-13T17:00:09.533Z,1.65
2023-09-13T17:02:37.335Z,1.83
2023-09-13T17:05:05.880Z,1.70
2023-09-13T17:07:33.668Z,1.75
2023-09-13T17:10:02.803Z,1.05
2023-09-13T17:12:31.288Z,1.20
2023-09-13T17:14:59.058Z,0.73
2023-09-13T17:17:26.822Z,1.55
2023-09-13T17:19:54.632Z,1.38
2023-09-13T17:22:24.080Z,1.10
2023-09-13T17:24:52.328Z,1.23
2023-09-13T17:27:21.549Z,0.95
2023-09-13T17:29:49.357Z,0.77
2023-09-13T17:32:17.194Z,0.88
2023-09-13T17:34:46.923Z,1.25
2023-09-13T17:37:15.015Z,0.45
2023-09-13T17:39:42.882Z,0.93
2023-09-13T17:42:10.886Z,0.60
2023-09-13T17:44:40.140Z,0.90
2023-09-13T17:47:08.419Z,0.93
2023-09-13T17:49:36.145Z,0.95
2023-09-13T17:52:04.194Z,0.75
2023-09-13T17:54:32.069Z,0.80
2023-09-13T17:57:00.467Z,1.10
2023-09-13T17:59:29.273Z,0.60
2023-09-13T18:01:58.402Z,0.70
2023-09-13T18:04:26.304Z,0.47
2023-09-13T18:06:54.312Z,0.63
2023-09-13T18:09:22.127Z,0.77
2023-09-13T18:11:52.729Z,0.60
2023-09-13T18:14:20.793Z,0.40
2023-09-13T18:16:48.922Z,0.50
2023-09-13T18:19:21.162Z,1.13
2023-09-13T18:21:49.078Z,1.08
2023-09-13T18:24:22.878Z,0.40
2023-09-13T18:26:57.362Z,0.80
2023-09-13T18:29:25.138Z,0.70
2023-09-13T18:31:57.763Z,0.73
2023-09-13T18:34:28.577Z,0.65
2023-09-13T18:36:56.435Z,0.88
2023-09-13T18:39:24.408Z,1.20
2023-09-13T18:41:52.272Z,0.52
2023-09-13T18:44:20.978Z,0.65
2023-09-13T18:46:49.580Z,0.50
2023-09-13T18:49:17.570Z,0.50
2023-09-13T18:51:47.330Z,0.40
2023-09-13T18:54:15.315Z,0.85
2023-09-13T18:56:43.149Z,0.90
2023-09-13T18:59:11.664Z,1.02
2023-09-13T19:01:41.793Z,0.40
2023-09-13T19:04:10.009Z,0.45
2023-09-13T19:06:37.874Z,0.55
2023-09-13T19:09:07.261Z,1.02
2023-09-13T19:11:36.663Z,0.38
2023-09-13T19:14:04.457Z,0.63
2023-09-13T19:16:33.213Z,0.93
2023-09-13T19:19:01.125Z,0.20
2023-09-13T19:21:28.940Z,0.65
2023-09-13T19:24:00.664Z,0.50
2023-09-13T19:26:29.731Z,0.93
2023-09-13T19:28:57.499Z,0.77
2023-09-13T19:31:26.443Z,0.75
2023-09-13T19:33:55.287Z,0.77
2023-09-13T19:36:23.166Z,0.40
2023-09-13T19:38:51.154Z,0.80
2023-09-13T19:41:19.475Z,0.50
2023-09-13T19:43:49.321Z,0.85
2023-09-13T19:46:18.141Z,0.70
2023-09-13T19:48:46.170Z,1.08
2023-09-13T19:51:14.320Z,0.90
2023-09-13T19:53:43.220Z,0.98
2023-09-13T19:56:11.486Z,0.47
2023-09-13T19:58:40.491Z,0.88
2023-09-13T20:01:12.959Z,0.85
2023-09-13T20:03:41.859Z,1.08
2023-09-13T20:06:11.716Z,1.15
2023-09-13T20:08:40.104Z,1.15
2023-09-13T20:11:09.391Z,1.15
2023-09-13T20:13:40.894Z,1.10
2023-09-13T20:16:10.778Z,1.00
2023-09-13T20:18:38.775Z,1.27
2023-09-13T20:21:07.194Z,0.70
2023-09-13T20:23:35.210Z,1.25
2023-09-13T20:26:04.142Z,1.25
2023-09-13T20:28:33.688Z,1.20
2023-09-13T20:31:02.331Z,0.82
2023-09-13T20:33:32.914Z,0.85
2023-09-13T20:36:02.395Z,0.85
2023-09-13T20:38:30.247Z,0.75
2023-09-13T20:40:57.982Z,1.20
2023-09-13T20:43:25.782Z,1.33
2023-09-13T20:45:53.781Z,1.17
2023-09-13T20:48:21.878Z,1.08
2023-09-13T20:50:53.172Z,0.95
2023-09-13T20:53:21.887Z,0.88
2023-09-13T20:55:49.706Z,0.82
2023-09-13T20:58:17.787Z,1.27
2023-09-13T21:00:46.577Z,1.02
2023-09-13T21:03:14.480Z,0.75
2023-09-13T21:05:42.449Z,0.63
2023-09-13T21:08:13.077Z,0.98
2023-09-13T21:10:40.958Z,0.93
2023-09-13T21:13:08.914Z,1.00
2023-09-13T21:15:38.269Z,0.85
2023-09-13T21:18:07.037Z,1.25
2023-09-13T21:20:34.944Z,1.05
2023-09-13T21:23:02.744Z,0.80
2023-09-13T21:25:31.844Z,0.63
2023-09-13T21:27:59.672Z,0.93
2023-09-13T21:30:27.588Z,0.93
2023-09-13T21:32:55.452Z,0.93
2023-09-13T21:35:23.528Z,0.95
2023-09-13T21:37:51.302Z,0.98
2023-09-13T21:40:19.225Z,1.27
2023-09-13T21:42:48.893Z,1.15
2023-09-13T21:45:19.622Z,1.25
2023-09-13T21:47:48.809Z,1.65
2023-09-13T21:50:17.165Z,1.58
2023-09-13T21:52:45.154Z,1.52
2023-09-13T21:55:13.826Z,1.70
2023-09-13T21:57:41.713Z,1.85
2023-09-13T22:00:16.452Z,1.83
2023-09-13T22:02:45.620Z,1.77
2023-09-13T22:05:16.916Z,1.65
2023-09-13T22:07:45.697Z,1.85
2023-09-13T22:10:14.332Z,1.90
2023-09-13T22:12:42.843Z,1.20
2023-09-13T22:15:13.195Z,1.70
2023-09-13T22:17:41.116Z,1.20
2023-09-13T22:20:09.913Z,1.67
2023-09-13T22:22:37.802Z,1.45
2023-09-13T22:25:10.129Z,2.00
2023-09-13T22:27:38.450Z,1.67
2023-09-13T22:30:08.068Z,1.75
2023-09-13T22:32:37.614Z,1.73
2023-09-13T22:35:06.426Z,1.73
2023-09-13T22:37:34.335Z,1.50
2023-09-13T22:40:03.989Z,1.77
2023-09-13T22:42:31.875Z,1.45
2023-09-13T22:44:59.727Z,1.75
2023-09-13T22:47:27.692Z,1.40
2023-09-13T22:49:57.129Z,1.85
2023-09-13T22:52:25.783Z,1.42
2023-09-13T22:54:53.761Z,1.30
2023-09-13T22:57:21.671Z,1.73
2023-09-13T22:59:49.461Z,1.20
2023-09-13T23:02:17.477Z,1.52
2023-09-13T23:04:48.267Z,2.10
2023-09-13T23:07:19.644Z,1.50
2023-09-13T23:09:47.482Z,2.10
2023-09-13T23:12:15.477Z,2.25
2023-09-13T23:14:43.241Z,2.10
2023-09-13T23:17:11.676Z,2.00
2023-09-13T23:19:39.483Z,2.00
2023-09-13T23:22:07.323Z,2.58
2023-09-13T23:24:37.762Z,2.05
2023-09-13T23:27:06.226Z,2.20
2023-09-13T23:29:34.942Z,2.55
2023-09-13T23:32:02.670Z,2.30
2023-09-13T23:34:30.437Z,2.58
2023-09-13T23:36:58.269Z,2.25
2023-09-13T23:39:26.446Z,2.00
2023-09-13T23:41:55.559Z,2.08
2023-09-13T23:44:23.358Z,1.83
2023-09-13T23:46:51.415Z,1.58
2023-09-13T23:49:19.360Z,2.03
2023-09-13T23:51:47.767Z,1.88
2023-09-13T23:54:15.762Z,1.27
2023-09-13T23:56:43.846Z,1.35
2023-09-13T23:59:13.056Z,1.75
